Time;durP1;ratioP1;P1;durP2;ratioP2;P2;SDS_P1;SDS_P2;PMS_P1;PMS_P2;Temp;Humidity;BMP_temperature;BMP_pressure;BME280_temperature;BME280_humidity;BME280_pressure;Samples;Min_cycle;Max_cycle;Signal;HPM_P1;HPM_P2
2021/06/13 00:02:24;;;;;;;10.60;5.57;;;;;;;;;;5114962;28;20430;-67
2021/06/13 00:04:50;;;;;;;9.43;5.60;;;;;;;;;;5114884;28;20450;-68
2021/06/13 00:07:17;;;;;;;9.80;4.83;;;;;;;;;;5114892;28;20439;-68
2021/06/13 00:09:44;;;;;;;6.80;4.60;;;;;;;;;;5114494;28;20523;-67
2021/06/13 00:12:11;;;;;;;11.90;6.07;;;;;;;;;;5115161;28;20446;-67
2021/06/13 00:14:38;;;;;;;8.17;5.47;;;;;;;;;;5114442;28;20443;-67
2021/06/13 00:17:06;;;;;;;17.37;7.07;;;;;;;;;;5115361;28;20509;-68
2021/06/13 00:19:33;;;;;;;9.93;6.37;;;;;;;;;;5114779;28;20513;-67
2021/06/13 00:22:00;;;;;;;17.03;5.93;;;;;;;;;;5114710;28;20487;-67
2021/06/13 00:24:26;;;;;;;9.70;5.83;;;;;;;;;;5113821;28;20439;-67
2021/06/13 00:26:53;;;;;;;13.83;5.67;;;;;;;;;;5114144;28;20477;-67
2021/06/13 00:29:20;;;;;;;12.97;5.63;;;;;;;;;;5114687;28;20911;-68
2021/06/13 00:31:47;;;;;;;10.50;5.53;;;;;;;;;;5114390;28;20796;-68
2021/06/13 00:34:15;;;;;;;14.00;6.13;;;;;;;;;;5114382;28;20446;-67
2021/06/13 00:36:42;;;;;;;9.07;5.10;;;;;;;;;;5114188;28;20477;-67
2021/06/13 00:39:08;;;;;;;8.60;5.63;;;;;;;;;;5114659;28;20540;-67
2021/06/13 00:41:35;;;;;;;13.03;6.17;;;;;;;;;;5113847;28;20435;-67
2021/06/13 00:44:02;;;;;;;11.83;6.20;;;;;;;;;;5114641;28;20445;-67
2021/06/13 00:46:28;;;;;;;12.80;5.90;;;;;;;;;;5114151;28;20447;-67
2021/06/13 00:48:55;;;;;;;10.80;5.90;;;;;;;;;;5114115;28;20860;-68
2021/06/13 00:51:23;;;;;;;9.20;5.63;;;;;;;;;;5114091;28;20445;-67
2021/06/13 00:53:51;;;;;;;11.93;6.10;;;;;;;;;;5114161;28;20438;-67
2021/06/13 00:56:17;;;;;;;16.63;6.37;;;;;;;;;;5113912;28;20855;-68
2021/06/13 00:58:44;;;;;;;11.63;6.63;;;;;;;;;;5113905;28;20443;-67
2021/06/13 01:01:11;;;;;;;12.00;5.80;;;;;;;;;;5113856;28;20438;-67
2021/06/13 01:03:38;;;;;;;10.57;5.53;;;;;;;;;;5114027;28;20499;-68
2021/06/13 01:06:05;;;;;;;13.60;6.50;;;;;;;;;;5113992;28;20517;-67
2021/06/13 01:08:39;;;;;;;13.80;5.97;;;;;;;;;;5114236;28;20226;-67
2021/06/13 01:11:12;;;;;;;13.93;6.63;;;;;;;;;;5114295;28;20434;-67
2021/06/13 01:13:42;;;;;;;16.60;6.00;;;;;;;;;;5113944;28;20423;-67
2021/06/13 01:16:11;;;;;;;13.40;6.40;;;;;;;;;;5113767;28;20446;-67
2021/06/13 01:18:42;;;;;;;9.50;6.03;;;;;;;;;;5113815;28;20923;-68
2021/06/13 01:21:12;;;;;;;11.50;5.60;;;;;;;;;;5114246;28;20430;-67
2021/06/13 01:24:00;;;;;;;12.07;6.43;;;;;;;;;;5114379;28;20425;-67
2021/06/13 01:26:39;;;;;;;8.40;6.00;;;;;;;;;;5079706;28;20450;-67
2021/06/13 01:29:09;;;;;;;12.67;5.70;;;;;;;;;;5114320;28;20486;-67
2021/06/13 01:31:37;;;;;;;15.47;6.50;;;;;;;;;;5113986;28;20444;-67
2021/06/13 01:34:07;;;;;;;10.10;5.53;;;;;;;;;;5113649;28;20441;-67
2021/06/13 01:36:35;;;;;;;7.10;5.10;;;;;;;;;;5116993;28;20490;-66
2021/06/13 01:39:02;;;;;;;14.53;6.77;;;;;;;;;;5117884;28;20458;-67
2021/06/13 01:41:30;;;;;;;9.27;6.37;;;;;;;;;;5117779;28;20533;-67
2021/06/13 01:43:58;;;;;;;11.83;6.17;;;;;;;;;;5118199;28;20483;-66
2021/06/13 01:46:28;;;;;;;7.97;6.23;;;;;;;;;;5118598;28;20906;-67
2021/06/13 01:48:55;;;;;;;11.87;5.90;;;;;;;;;;5117911;28;20444;-66
2021/06/13 01:51:22;;;;;;;14.23;6.53;;;;;;;;;;5118043;28;20525;-66
2021/06/13 01:53:50;;;;;;;16.07;6.63;;;;;;;;;;5117820;28;20435;-67
2021/06/13 01:56:17;;;;;;;12.63;6.50;;;;;;;;;;5117400;28;20450;-67
2021/06/13 01:58:45;;;;;;;12.97;7.30;;;;;;;;;;5117989;28;20495;-66
2021/06/13 02:01:12;;;;;;;14.05;7.63;;;;;;;;;;5117709;28;20462;-66
2021/06/13 02:03:42;;;;;;;12.43;7.50;;;;;;;;;;5117389;28;20189;-66
2021/06/13 02:06:09;;;;;;;11.10;7.00;;;;;;;;;;5117296;28;20445;-67
2021/06/13 02:08:36;;;;;;;11.77;6.47;;;;;;;;;;5117368;28;20442;-66
2021/06/13 02:11:04;;;;;;;14.90;6.77;;;;;;;;;;5117190;28;20443;-66
2021/06/13 02:13:32;;;;;;;14.80;7.03;;;;;;;;;;5117698;28;20457;-66
2021/06/13 02:15:59;;;;;;;13.83;7.50;;;;;;;;;;5117093;28;20543;-66
2021/06/13 02:18:26;;;;;;;13.37;7.20;;;;;;;;;;5117319;28;20569;-67
2021/06/13 02:20:55;;;;;;;11.87;6.37;;;;;;;;;;5117426;28;20529;-67
2021/06/13 02:23:24;;;;;;;10.63;5.93;;;;;;;;;;5116917;28;20435;-67
2021/06/13 02:25:51;;;;;;;11.30;6.33;;;;;;;;;;5117376;28;20438;-66
2021/06/13 02:28:17;;;;;;;23.87;7.47;;;;;;;;;;5116754;28;20470;-67
2021/06/13 02:30:45;;;;;;;12.37;6.50;;;;;;;;;;5117099;28;20449;-67
2021/06/13 02:33:15;;;;;;;13.67;6.83;;;;;;;;;;5116741;28;20526;-67
2021/06/13 02:35:43;;;;;;;18.80;6.57;;;;;;;;;;5116712;28;21014;-67
2021/06/13 02:38:13;;;;;;;13.70;5.77;;;;;;;;;;5116566;28;20487;-67
2021/06/13 02:40:39;;;;;;;20.40;7.70;;;;;;;;;;5117201;28;20491;-66
2021/06/13 02:43:06;;;;;;;13.02;6.40;;;;;;;;;;5116557;28;20448;-67
2021/06/13 02:45:33;;;;;;;11.07;7.10;;;;;;;;;;5116722;28;20249;-66
2021/06/13 02:48:00;;;;;;;14.93;6.27;;;;;;;;;;5116852;28;20760;-66
2021/06/13 02:50:27;;;;;;;11.37;6.80;;;;;;;;;;5118787;28;20455;-67
2021/06/13 02:52:56;;;;;;;8.07;6.20;;;;;;;;;;5116813;28;20439;-67
2021/06/13 02:55:27;;;;;;;12.23;6.27;;;;;;;;;;5116630;28;20447;-68
2021/06/13 02:57:56;;;;;;;15.17;7.47;;;;;;;;;;5117185;28;20470;-67
2021/06/13 03:00:24;;;;;;;14.25;7.85;;;;;;;;;;5116288;28;20533;-67
2021/06/13 03:02:52;;;;;;;25.57;8.67;;;;;;;;;;5116912;28;20583;-67
2021/06/13 03:05:20;;;;;;;9.23;6.50;;;;;;;;;;5116788;28;20524;-68
2021/06/13 03:07:46;;;;;;;18.13;7.77;;;;;;;;;;5116834;28;20442;-68
2021/06/13 03:10:14;;;;;;;12.03;7.30;;;;;;;;;;5116356;28;20551;-67
2021/06/13 03:12:43;;;;;;;18.10;6.93;;;;;;;;;;5116527;28;20438;-67
2021/06/13 03:15:10;;;;;;;16.40;7.90;;;;;;;;;;5116285;28;20490;-67
2021/06/13 03:17:38;;;;;;;12.07;7.43;;;;;;;;;;5116407;28;20306;-67
2021/06/13 03:20:05;;;;;;;18.00;7.75;;;;;;;;;;5116179;28;20529;-67
2021/06/13 03:22:33;;;;;;;9.57;7.30;;;;;;;;;;5115811;28;20192;-67
2021/06/13 03:25:02;;;;;;;15.03;7.20;;;;;;;;;;5116108;28;20517;-67
2021/06/13 03:27:29;;;;;;;13.80;7.13;;;;;;;;;;5115930;28;20557;-68
2021/06/13 03:29:58;;;;;;;17.17;8.18;;;;;;;;;;5115996;28;20439;-67
2021/06/13 03:32:25;;;;;;;17.07;9.03;;;;;;;;;;5115961;28;20286;-68
2021/06/13 03:34:52;;;;;;;15.13;7.43;;;;;;;;;;5116051;28;20442;-66
2021/06/13 03:37:19;;;;;;;16.87;7.90;;;;;;;;;;5115432;28;20480;-67
2021/06/13 03:39:47;;;;;;;14.10;6.80;;;;;;;;;;5116077;28;20456;-67
2021/06/13 03:42:15;;;;;;;10.90;7.00;;;;;;;;;;5115745;28;20457;-67
2021/06/13 03:44:43;;;;;;;10.13;7.10;;;;;;;;;;5115352;28;20442;-66
2021/06/13 03:47:12;;;;;;;13.10;7.10;;;;;;;;;;5115774;28;20529;-67
2021/06/13 03:49:39;;;;;;;11.53;7.33;;;;;;;;;;5115269;28;20528;-67
2021/06/13 03:52:07;;;;;;;17.98;7.45;;;;;;;;;;5115288;28;20438;-67
2021/06/13 03:54:34;;;;;;;14.65;8.15;;;;;;;;;;5115543;28;20287;-67
2021/06/13 03:57:04;;;;;;;14.23;7.40;;;;;;;;;;5115401;28;20236;-66
2021/06/13 03:59:32;;;;;;;10.30;7.63;;;;;;;;;;5114590;28;20439;-67
2021/06/13 04:01:59;;;;;;;15.37;7.90;;;;;;;;;;5115819;28;20442;-66
2021/06/13 04:04:28;;;;;;;15.43;8.65;;;;;;;;;;5114132;28;20525;-67
2021/06/13 04:06:56;;;;;;;18.80;7.23;;;;;;;;;;5114902;28;20736;-67
2021/06/13 04:09:23;;;;;;;11.83;6.63;;;;;;;;;;5115963;28;20452;-67
2021/06/13 04:11:52;;;;;;;12.53;7.40;;;;;;;;;;5115579;28;20447;-67
2021/06/13 04:14:20;;;;;;;13.47;7.03;;;;;;;;;;5115053;28;20435;-67
2021/06/13 04:16:47;;;;;;;9.73;6.63;;;;;;;;;;5115005;28;20773;-67
2021/06/13 04:19:16;;;;;;;12.17;6.60;;;;;;;;;;5114686;28;20451;-67
2021/06/13 04:21:46;;;;;;;8.73;6.70;;;;;;;;;;5114591;28;20947;-67
2021/06/13 04:24:14;;;;;;;10.57;6.30;;;;;;;;;;5115125;28;20860;-66
2021/06/13 04:26:42;;;;;;;9.73;6.60;;;;;;;;;;5115179;28;20567;-67
2021/06/13 04:29:10;;;;;;;9.73;6.60;;;;;;;;;;5115205;27;21005;-67
2021/06/13 04:31:37;;;;;;;15.97;7.57;;;;;;;;;;5122825;27;20932;-67
2021/06/13 04:34:04;;;;;;;9.20;6.40;;;;;;;;;;5113914;28;20443;-68
2021/06/13 04:36:31;;;;;;;12.20;7.50;;;;;;;;;;5114225;28;20432;-67
2021/06/13 04:39:00;;;;;;;13.60;7.43;;;;;;;;;;5114784;28;20522;-67
2021/06/13 04:41:28;;;;;;;16.97;7.70;;;;;;;;;;5114490;28;20514;-66
2021/06/13 04:43:55;;;;;;;10.87;6.23;;;;;;;;;;5114750;28;20438;-67
2021/06/13 04:46:26;;;;;;;10.70;6.87;;;;;;;;;;5114300;28;20441;-66
2021/06/13 04:48:53;;;;;;;18.33;7.30;;;;;;;;;;5115106;28;20788;-66
2021/06/13 04:51:21;;;;;;;12.63;7.27;;;;;;;;;;5114569;28;20445;-66
2021/06/13 04:54:07;;;;;;;13.23;6.33;;;;;;;;;;5114486;28;20526;-67
2021/06/13 04:56:39;;;;;;;13.57;6.80;;;;;;;;;;5114422;28;20431;-66
2021/06/13 04:59:06;;;;;;;10.77;6.30;;;;;;;;;;5114520;28;20473;-67
2021/06/13 05:01:34;;;;;;;14.93;8.00;;;;;;;;;;5114668;28;20437;-67
2021/06/13 05:04:02;;;;;;;15.77;7.30;;;;;;;;;;5113897;28;20529;-67
2021/06/13 05:06:30;;;;;;;12.60;7.50;;;;;;;;;;5114304;28;20434;-66
2021/06/13 05:08:57;;;;;;;14.57;7.13;;;;;;;;;;5114324;28;20434;-67
2021/06/13 05:11:24;;;;;;;12.50;8.37;;;;;;;;;;5113910;28;20446;-67
2021/06/13 05:13:53;;;;;;;19.63;6.67;;;;;;;;;;5113993;28;20521;-67
2021/06/13 05:16:20;;;;;;;10.07;6.50;;;;;;;;;;5114401;28;20441;-66
2021/06/13 05:18:47;;;;;;;10.53;7.13;;;;;;;;;;5113695;28;20466;-67
2021/06/13 05:21:14;;;;;;;12.53;6.80;;;;;;;;;;5114162;28;20465;-67
2021/06/13 05:23:41;;;;;;;11.73;5.87;;;;;;;;;;5114126;28;20517;-67
2021/06/13 05:26:08;;;;;;;10.23;5.73;;;;;;;;;;5114061;28;20439;-67
2021/06/13 05:28:36;;;;;;;14.07;7.70;;;;;;;;;;5114464;28;20470;-67
2021/06/13 05:31:04;;;;;;;21.70;8.07;;;;;;;;;;5114038;28;20434;-67
2021/06/13 05:33:31;;;;;;;22.17;7.20;;;;;;;;;;5114004;28;20443;-66
2021/06/13 05:36:01;;;;;;;10.87;5.90;;;;;;;;;;5113688;28;20529;-67
2021/06/13 05:38:28;;;;;;;15.87;6.87;;;;;;;;;;5114289;28;20548;-67
2021/06/13 05:40:56;;;;;;;12.80;6.57;;;;;;;;;;5113613;28;20442;-67
2021/06/13 05:43:23;;;;;;;18.73;7.53;;;;;;;;;;5114227;28;20534;-67
2021/06/13 05:45:50;;;;;;;9.37;5.50;;;;;;;;;;5113854;28;20438;-68
2021/06/13 05:48:19;;;;;;;13.90;6.87;;;;;;;;;;5113865;28;20439;-67
2021/06/13 05:50:46;;;;;;;16.00;7.43;;;;;;;;;;5113853;28;20449;-67
2021/06/13 05:53:13;;;;;;;14.27;6.20;;;;;;;;;;5113818;28;20866;-67
2021/06/13 05:55:41;;;;;;;10.23;6.17;;;;;;;;;;5113796;28;20442;-67
2021/06/13 05:58:09;;;;;;;12.23;5.87;;;;;;;;;;5113230;28;20539;-67
2021/06/13 06:00:37;;;;;;;11.70;6.40;;;;;;;;;;5114134;28;20439;-67
2021/06/13 06:03:06;;;;;;;11.43;6.07;;;;;;;;;;5113878;28;20438;-68
2021/06/13 06:05:34;;;;;;;17.87;6.87;;;;;;;;;;5113749;28;20438;-67
2021/06/13 06:08:02;;;;;;;16.23;6.10;;;;;;;;;;5113285;28;20450;-67
2021/06/13 06:10:30;;;;;;;13.87;6.33;;;;;;;;;;5113674;28;20430;-66
2021/06/13 06:13:00;;;;;;;17.20;7.07;;;;;;;;;;5113695;28;20449;-67
2021/06/13 06:15:27;;;;;;;14.87;6.47;;;;;;;;;;5113273;28;20533;-67
2021/06/13 06:17:55;;;;;;;10.80;6.97;;;;;;;;;;5113564;28;20481;-67
2021/06/13 06:20:23;;;;;;;11.90;6.10;;;;;;;;;;5113990;28;20841;-67
2021/06/13 06:22:52;;;;;;;13.77;6.03;;;;;;;;;;5117351;28;20441;-67
2021/06/13 06:25:20;;;;;;;10.03;6.07;;;;;;;;;;5117306;28;20443;-67
2021/06/13 06:27:48;;;;;;;9.77;5.57;;;;;;;;;;5117246;28;20467;-67
2021/06/13 06:30:15;;;;;;;12.23;5.53;;;;;;;;;;5117158;28;20438;-71
2021/06/13 06:32:43;;;;;;;12.03;5.47;;;;;;;;;;5117408;28;20477;-66
2021/06/13 06:35:12;;;;;;;10.43;5.50;;;;;;;;;;5116979;28;20478;-67
2021/06/13 06:37:39;;;;;;;16.57;5.50;;;;;;;;;;5116556;28;20507;-67
2021/06/13 06:40:09;;;;;;;14.80;6.23;;;;;;;;;;5117301;28;20443;-73
2021/06/13 06:42:37;;;;;;;8.10;5.37;;;;;;;;;;5116558;28;20445;-69
2021/06/13 06:45:05;;;;;;;8.37;5.23;;;;;;;;;;5116541;28;20442;-67
2021/06/13 06:47:32;;;;;;;11.87;5.67;;;;;;;;;;5116934;28;20438;-67
2021/06/13 06:50:00;;;;;;;6.83;4.90;;;;;;;;;;5116497;28;20446;-67
2021/06/13 06:52:27;;;;;;;11.30;4.90;;;;;;;;;;5116769;28;20445;-68
2021/06/13 06:54:54;;;;;;;11.10;4.80;;;;;;;;;;5117149;28;20858;-68
2021/06/13 06:57:23;;;;;;;6.23;3.53;;;;;;;;;;5118630;27;20441;-68
2021/06/13 06:59:50;;;;;;;8.83;4.23;;;;;;;;;;5125575;27;20483;-67
2021/06/13 07:02:18;;;;;;;9.43;4.40;;;;;;;;;;5121701;27;20452;-67
2021/06/13 07:04:46;;;;;;;9.13;4.97;;;;;;;;;;5137643;27;20437;-67
2021/06/13 07:07:14;;;;;;;10.90;4.40;;;;;;;;;;5137398;27;20461;-67
2021/06/13 07:09:41;;;;;;;11.97;4.37;;;;;;;;;;5137186;27;20448;-66
2021/06/13 07:12:09;;;;;;;6.60;4.30;;;;;;;;;;5137058;27;20533;-67
2021/06/13 07:14:38;;;;;;;8.50;4.63;;;;;;;;;;5136873;27;20480;-67
2021/06/13 07:17:05;;;;;;;9.13;4.60;;;;;;;;;;5118568;27;20441;-67
2021/06/13 07:19:32;;;;;;;7.27;3.93;;;;;;;;;;5136423;27;20480;-67
2021/06/13 07:21:59;;;;;;;7.43;4.70;;;;;;;;;;5136720;27;20477;-67
2021/06/13 07:24:27;;;;;;;7.40;4.27;;;;;;;;;;5136324;27;20444;-67
2021/06/13 07:26:54;;;;;;;7.63;4.10;;;;;;;;;;5127698;27;20478;-67
2021/06/13 07:29:21;;;;;;;9.37;3.93;;;;;;;;;;5095884;28;20427;-67
2021/06/13 07:31:50;;;;;;;8.60;4.53;;;;;;;;;;5095292;28;20439;-68
2021/06/13 07:34:17;;;;;;;5.83;3.83;;;;;;;;;;5094108;28;20446;-67
2021/06/13 07:36:44;;;;;;;10.03;4.23;;;;;;;;;;5095383;28;20960;-67
2021/06/13 07:39:12;;;;;;;6.47;4.27;;;;;;;;;;5095377;28;20490;-68
2021/06/13 07:41:39;;;;;;;7.33;3.63;;;;;;;;;;5095798;28;20443;-67
2021/06/13 07:44:07;;;;;;;6.43;3.93;;;;;;;;;;5095825;28;20497;-68
2021/06/13 07:46:35;;;;;;;6.30;4.43;;;;;;;;;;5096002;28;20458;-67
2021/06/13 07:49:04;;;;;;;4.20;3.47;;;;;;;;;;5094911;28;20527;-67
2021/06/13 07:51:32;;;;;;;12.60;3.90;;;;;;;;;;5094844;28;20444;-68
2021/06/13 07:53:59;;;;;;;6.33;3.20;;;;;;;;;;5094868;28;20453;-69
2021/06/13 07:56:26;;;;;;;7.53;4.37;;;;;;;;;;5094809;28;20440;-68
2021/06/13 07:58:53;;;;;;;4.70;3.57;;;;;;;;;;5094557;28;20559;-69
2021/06/13 08:01:21;;;;;;;6.73;3.67;;;;;;;;;;5094638;28;20439;-69
2021/06/13 08:03:48;;;;;;;5.50;2.93;;;;;;;;;;5094757;28;20440;-68
2021/06/13 08:06:17;;;;;;;5.97;3.33;;;;;;;;;;5094963;28;20443;-68
2021/06/13 08:08:45;;;;;;;5.97;4.77;;;;;;;;;;5095142;28;20535;-68
2021/06/13 08:11:12;;;;;;;5.00;2.53;;;;;;;;;;5094577;28;20933;-69
2021/06/13 08:13:39;;;;;;;3.60;2.70;;;;;;;;;;5094970;28;20458;-68
2021/06/13 08:16:07;;;;;;;3.80;2.97;;;;;;;;;;5094347;28;20443;-69
2021/06/13 08:18:34;;;;;;;9.60;3.30;;;;;;;;;;5094651;28;20567;-70
2021/06/13 08:21:01;;;;;;;7.40;3.63;;;;;;;;;;5094590;28;20446;-68
2021/06/13 08:23:31;;;;;;;6.87;3.27;;;;;;;;;;5094970;28;20432;-68
2021/06/13 08:25:58;;;;;;;6.10;3.60;;;;;;;;;;5094683;28;20447;-68
2021/06/13 08:28:25;;;;;;;5.53;3.03;;;;;;;;;;5112045;28;20555;-69
2021/06/13 08:30:53;;;;;;;6.00;3.13;;;;;;;;;;5114844;28;20535;-68
2021/06/13 08:33:20;;;;;;;4.53;3.57;;;;;;;;;;5114738;28;20924;-68
2021/06/13 08:35:47;;;;;;;4.80;2.80;;;;;;;;;;5114391;28;20436;-69
2021/06/13 08:38:14;;;;;;;7.13;3.40;;;;;;;;;;5114654;28;20449;-69
2021/06/13 08:40:43;;;;;;;6.13;2.83;;;;;;;;;;5114485;28;20456;-68
2021/06/13 08:43:10;;;;;;;5.60;3.20;;;;;;;;;;5114922;28;20445;-69
2021/06/13 08:45:38;;;;;;;6.90;4.20;;;;;;;;;;5116987;27;20573;-69
2021/06/13 08:48:05;;;;;;;7.23;3.43;;;;;;;;;;5125827;27;20443;-68
2021/06/13 08:50:34;;;;;;;7.43;3.13;;;;;;;;;;5134724;27;20437;-68
2021/06/13 08:53:02;;;;;;;7.23;3.50;;;;;;;;;;5135028;27;20525;-69
2021/06/13 08:55:30;;;;;;;5.93;3.13;;;;;;;;;;5134617;27;20442;-69
2021/06/13 08:57:58;;;;;;;3.60;3.10;;;;;;;;;;5134841;27;20453;-68
2021/06/13 09:00:28;;;;;;;8.60;4.07;;;;;;;;;;5135034;27;20838;-68
2021/06/13 09:02:56;;;;;;;4.40;3.47;;;;;;;;;;5134768;27;20517;-68
2021/06/13 09:05:24;;;;;;;6.40;3.73;;;;;;;;;;5134755;27;20441;-67
2021/06/13 09:07:52;;;;;;;7.63;3.07;;;;;;;;;;5134219;27;20940;-69
2021/06/13 09:10:22;;;;;;;5.77;3.23;;;;;;;;;;5134824;27;20951;-68
2021/06/13 09:12:49;;;;;;;6.47;3.40;;;;;;;;;;5134663;27;20445;-68
2021/06/13 09:15:18;;;;;;;6.80;2.97;;;;;;;;;;5129900;27;20443;-68
2021/06/13 09:17:45;;;;;;;6.23;2.93;;;;;;;;;;5113718;28;20449;-68
2021/06/13 09:20:19;;;;;;;4.23;2.67;;;;;;;;;;5113929;28;20475;-67
2021/06/13 09:23:02;;;;;;;9.33;3.30;;;;;;;;;;5114558;28;20538;-67
2021/06/13 09:25:30;;;;;;;3.30;3.00;;;;;;;;;;5114158;28;20550;-67
2021/06/13 09:28:05;;;;;;;5.07;3.20;;;;;;;;;;5113543;28;20887;-67
2021/06/13 09:30:34;;;;;;;5.00;3.70;;;;;;;;;;5113988;28;20509;-67
2021/06/13 09:33:02;;;;;;;4.50;3.37;;;;;;;;;;5114224;28;20450;-67
2021/06/13 09:35:30;;;;;;;4.53;2.87;;;;;;;;;;5114076;28;20551;-67
2021/06/13 09:38:08;;;;;;;4.80;3.10;;;;;;;;;;5113401;28;20466;-67
2021/06/13 09:40:35;;;;;;;11.30;3.17;;;;;;;;;;5114227;28;20545;-67
2021/06/13 09:43:11;;;;;;;8.27;3.63;;;;;;;;;;5114517;28;20449;-68
2021/06/13 09:45:39;;;;;;;3.83;3.27;;;;;;;;;;5114122;28;20493;-67
2021/06/13 09:48:09;;;;;;;5.23;4.10;;;;;;;;;;5113752;28;20469;-68
2021/06/13 09:50:36;;;;;;;5.37;3.50;;;;;;;;;;5113474;28;20460;-68
2021/06/13 09:53:19;;;;;;;6.57;3.87;;;;;;;;;;5113758;28;20438;-68
2021/06/13 09:55:46;;;;;;;6.77;3.03;;;;;;;;;;5114243;28;20423;-68
2021/06/13 09:58:14;;;;;;;3.50;2.90;;;;;;;;;;5117754;28;20436;-67
2021/06/13 10:00:43;;;;;;;4.60;3.27;;;;;;;;;;5117711;28;20509;-68
2021/06/13 10:03:22;;;;;;;6.27;3.40;;;;;;;;;;5117276;28;20442;-67
2021/06/13 10:05:56;;;;;;;3.63;2.60;;;;;;;;;;5117983;28;20454;-68
2021/06/13 10:08:24;;;;;;;8.90;3.60;;;;;;;;;;5117618;28;20802;-68
2021/06/13 10:10:51;;;;;;;5.90;2.97;;;;;;;;;;5117509;28;20446;-68
2021/06/13 10:13:19;;;;;;;5.07;3.10;;;;;;;;;;5117184;28;20443;-68
2021/06/13 10:15:50;;;;;;;4.67;2.80;;;;;;;;;;5117560;28;20532;-68
2021/06/13 10:18:19;;;;;;;5.97;3.30;;;;;;;;;;5117152;28;20931;-68
2021/06/13 10:20:47;;;;;;;6.27;3.27;;;;;;;;;;5116986;28;20980;-68
2021/06/13 10:23:14;;;;;;;6.00;4.27;;;;;;;;;;5117032;28;20526;-68
2021/06/13 10:25:41;;;;;;;3.47;2.80;;;;;;;;;;5117596;28;20521;-69
2021/06/13 10:28:08;;;;;;;4.57;3.63;;;;;;;;;;5116921;28;20826;-68
2021/06/13 10:30:36;;;;;;;6.83;2.67;;;;;;;;;;5116842;28;20491;-68
2021/06/13 10:33:04;;;;;;;4.90;2.83;;;;;;;;;;5117107;28;20932;-68
2021/06/13 10:35:33;;;;;;;6.00;3.30;;;;;;;;;;5117032;28;20531;-68
2021/06/13 10:38:02;;;;;;;6.67;3.17;;;;;;;;;;5116991;28;20447;-69
2021/06/13 10:40:31;;;;;;;4.63;3.10;;;;;;;;;;5116821;28;20501;-67
2021/06/13 10:42:58;;;;;;;3.70;3.30;;;;;;;;;;5116823;28;20470;-67
2021/06/13 10:45:31;;;;;;;3.60;2.97;;;;;;;;;;5116542;28;20453;-67
2021/06/13 10:48:07;;;;;;;5.73;3.43;;;;;;;;;;5116885;28;20460;-67
2021/06/13 10:50:35;;;;;;;5.73;3.70;;;;;;;;;;5116785;28;20435;-68
2021/06/13 10:53:03;;;;;;;3.83;2.47;;;;;;;;;;5116661;28;20521;-67
2021/06/13 10:55:45;;;;;;;4.13;3.70;;;;;;;;;;5116847;28;20453;-67
2021/06/13 10:58:12;;;;;;;6.27;2.87;;;;;;;;;;5116642;28;20511;-68
2021/06/13 11:00:40;;;;;;;5.63;3.07;;;;;;;;;;5116493;28;20479;-68
2021/06/13 11:03:11;;;;;;;5.17;3.10;;;;;;;;;;5117044;28;20438;-67
2021/06/13 11:05:39;;;;;;;3.63;3.30;;;;;;;;;;5116192;28;20449;-68
2021/06/13 11:08:07;;;;;;;3.13;2.50;;;;;;;;;;5115960;28;20443;-68
2021/06/13 11:10:35;;;;;;;6.27;3.23;;;;;;;;;;5116405;28;20435;-68
2021/06/13 11:13:04;;;;;;;9.33;3.07;;;;;;;;;;5116455;28;20439;-67
2021/06/13 11:16:00;;;;;;;4.53;4.10;;;;;;;;;;5116594;28;20463;-67
2021/06/13 11:18:30;;;;;;;6.53;2.47;;;;;;;;;;5069757;28;20454;-68
2021/06/13 11:21:12;;;;;;;5.90;3.07;;;;;;;;;;5116073;28;20471;-67
2021/06/13 11:23:53;;;;;;;5.90;3.73;;;;;;;;;;5116172;28;20459;-67
2021/06/13 11:26:44;;;;;;;6.37;3.60;;;;;;;;;;5115807;28;20470;-67
2021/06/13 11:29:13;;;;;;;4.83;3.80;;;;;;;;;;5115578;28;20429;-67
2021/06/13 11:31:55;;;;;;;5.50;2.87;;;;;;;;;;5115596;28;20442;-67
2021/06/13 11:34:34;;;;;;;3.70;3.33;;;;;;;;;;5115685;28;20947;-67
2021/06/13 11:37:01;;;;;;;5.40;3.23;;;;;;;;;;5116129;28;20750;-68
2021/06/13 11:39:32;;;;;;;4.83;3.10;;;;;;;;;;5115518;28;20485;-67
2021/06/13 11:42:12;;;;;;;4.57;3.03;;;;;;;;;;5116631;28;20450;-68
2021/06/13 11:44:43;;;;;;;3.10;2.53;;;;;;;;;;5116338;28;20449;-68
2021/06/13 11:47:21;;;;;;;7.90;3.70;;;;;;;;;;5115222;28;20438;-68
2021/06/13 11:49:50;;;;;;;5.90;3.70;;;;;;;;;;5115461;28;20531;-68
2021/06/13 11:52:19;;;;;;;3.43;3.13;;;;;;;;;;5115100;28;20440;-68
2021/06/13 11:54:47;;;;;;;3.33;2.77;;;;;;;;;;5115383;28;20443;-67
2021/06/13 11:57:30;;;;;;;7.20;3.30;;;;;;;;;;5115151;28;20506;-68
2021/06/13 12:00:09;;;;;;;4.83;2.80;;;;;;;;;;5114955;28;20468;-67
2021/06/13 12:02:37;;;;;;;6.33;4.30;;;;;;;;;;5114941;28;20520;-67
2021/06/13 12:05:06;;;;;;;4.60;3.33;;;;;;;;;;5114860;28;20436;-67
2021/06/13 12:07:37;;;;;;;5.20;3.73;;;;;;;;;;5115315;28;20531;-68
2021/06/13 12:10:17;;;;;;;5.07;2.80;;;;;;;;;;5115593;28;20479;-68
2021/06/13 12:12:44;;;;;;;4.37;2.80;;;;;;;;;;5115037;28;20434;-68
2021/06/13 12:15:12;;;;;;;3.50;2.80;;;;;;;;;;5114568;28;20453;-67
2021/06/13 12:17:39;;;;;;;4.87;2.83;;;;;;;;;;5114577;28;20440;-67
2021/06/13 12:20:11;;;;;;;4.40;3.00;;;;;;;;;;5114539;28;20493;-67
2021/06/13 12:22:42;;;;;;;5.37;3.53;;;;;;;;;;5115550;28;20429;-68
2021/06/13 12:27:57;;;;;;;3.53;2.40;;;;;;;;;;5115014;28;20605;-67
2021/06/13 12:30:24;;;;;;;4.87;3.23;;;;;;;;;;5115399;28;20471;-68
2021/06/13 12:32:56;;;;;;;4.13;3.33;;;;;;;;;;5114181;28;20436;-67
2021/06/13 12:35:26;;;;;;;7.03;3.80;;;;;;;;;;5114218;28;20455;-67
2021/06/13 12:37:58;;;;;;;10.60;3.73;;;;;;;;;;5114373;28;20498;-67
2021/06/13 12:40:26;;;;;;;7.30;3.60;;;;;;;;;;5114335;28;20491;-67
2021/06/13 12:42:53;;;;;;;5.27;3.23;;;;;;;;;;5114431;28;20477;-67
2021/06/13 12:45:21;;;;;;;6.10;3.30;;;;;;;;;;5114207;28;20515;-68
2021/06/13 12:47:49;;;;;;;3.67;3.13;;;;;;;;;;5114142;28;20938;-67
2021/06/13 12:50:22;;;;;;;4.97;3.53;;;;;;;;;;5114373;28;20437;-69
2021/06/13 12:52:51;;;;;;;4.87;3.30;;;;;;;;;;5114018;28;20440;-67
2021/06/13 12:55:18;;;;;;;4.13;3.10;;;;;;;;;;5114200;28;20536;-68
2021/06/13 12:57:47;;;;;;;9.00;3.20;;;;;;;;;;5114181;28;20443;-68
2021/06/13 13:00:15;;;;;;;4.00;3.20;;;;;;;;;;5114117;28;20478;-68
2021/06/13 13:02:42;;;;;;;8.83;4.67;;;;;;;;;;5114041;28;20434;-69
2021/06/13 13:05:14;;;;;;;6.23;3.43;;;;;;;;;;5114124;28;20435;-69
2021/06/13 13:07:42;;;;;;;4.27;2.77;;;;;;;;;;5114814;28;20426;-69
2021/06/13 13:10:15;;;;;;;5.83;3.20;;;;;;;;;;5113500;28;20454;-69
2021/06/13 13:12:43;;;;;;;4.17;3.27;;;;;;;;;;5114462;28;20460;-68
2021/06/13 13:15:15;;;;;;;7.93;4.17;;;;;;;;;;5113915;28;20446;-68
2021/06/13 13:17:42;;;;;;;4.80;3.50;;;;;;;;;;5113839;28;20523;-67
2021/06/13 13:20:21;;;;;;;4.63;3.47;;;;;;;;;;5114587;28;20573;-68
2021/06/13 13:22:49;;;;;;;5.40;3.30;;;;;;;;;;5113838;28;20866;-68
2021/06/13 13:25:19;;;;;;;8.80;4.37;;;;;;;;;;5113809;28;20451;-68
2021/06/13 13:27:46;;;;;;;8.50;3.50;;;;;;;;;;5114370;28;20547;-68
2021/06/13 13:30:41;;;;;;;6.10;3.40;;;;;;;;;;5114412;28;20528;-68
2021/06/13 13:33:08;;;;;;;3.97;3.40;;;;;;;;;;5070761;28;20488;-68
2021/06/13 13:35:41;;;;;;;4.93;3.80;;;;;;;;;;5117858;28;20436;-67
2021/06/13 13:38:09;;;;;;;8.53;4.80;;;;;;;;;;5118320;28;20457;-68
2021/06/13 13:40:39;;;;;;;9.60;3.77;;;;;;;;;;5118355;28;20541;-69
2021/06/13 13:43:08;;;;;;;5.47;3.50;;;;;;;;;;5118396;28;20472;-68
2021/06/13 13:45:36;;;;;;;7.37;4.87;;;;;;;;;;5117639;28;21015;-68
2021/06/13 13:48:08;;;;;;;6.67;3.97;;;;;;;;;;5118075;28;20874;-69
2021/06/13 13:50:46;;;;;;;4.57;3.63;;;;;;;;;;5117461;28;20453;-68
2021/06/13 13:53:20;;;;;;;4.07;3.23;;;;;;;;;;5117453;28;20432;-68
2021/06/13 13:55:50;;;;;;;7.40;3.90;;;;;;;;;;5117592;28;20440;-68
2021/06/13 13:58:18;;;;;;;15.53;4.43;;;;;;;;;;5117723;28;20802;-68
2021/06/13 14:00:50;;;;;;;4.53;3.80;;;;;;;;;;5117486;28;20597;-68
2021/06/13 14:03:17;;;;;;;6.87;5.00;;;;;;;;;;5117743;28;20802;-68
2021/06/13 14:05:50;;;;;;;6.53;3.53;;;;;;;;;;5117574;28;20448;-68
2021/06/13 14:08:18;;;;;;;4.53;3.70;;;;;;;;;;5129526;27;20474;-69
2021/06/13 14:10:45;;;;;;;10.00;6.70;;;;;;;;;;5118020;28;20443;-68
2021/06/13 14:13:13;;;;;;;8.13;3.97;;;;;;;;;;5117063;28;20443;-68
2021/06/13 14:15:41;;;;;;;5.70;3.73;;;;;;;;;;5117407;28;20445;-68
2021/06/13 14:18:08;;;;;;;5.20;3.67;;;;;;;;;;5117405;28;20420;-68
2021/06/13 14:20:35;;;;;;;4.87;3.90;;;;;;;;;;5116757;28;20499;-68
2021/06/13 14:23:02;;;;;;;5.83;4.83;;;;;;;;;;5116938;28;20443;-68
2021/06/13 14:25:30;;;;;;;7.27;4.07;;;;;;;;;;5117087;28;20472;-68
2021/06/13 14:27:57;;;;;;;7.77;4.03;;;;;;;;;;5116546;28;20506;-67
2021/06/13 14:30:26;;;;;;;10.10;6.70;;;;;;;;;;5116866;28;20533;-68
2021/06/13 14:32:54;;;;;;;7.97;6.03;;;;;;;;;;5117291;28;20447;-68
2021/06/13 14:35:21;;;;;;;6.60;4.27;;;;;;;;;;5116872;28;20441;-67
2021/06/13 14:37:48;;;;;;;5.40;3.90;;;;;;;;;;5116260;28;20495;-67
2021/06/13 14:40:16;;;;;;;6.47;3.90;;;;;;;;;;5116912;28;20529;-67
2021/06/13 14:42:44;;;;;;;8.57;4.50;;;;;;;;;;5115639;28;20763;-67
2021/06/13 14:45:13;;;;;;;5.70;3.90;;;;;;;;;;5116328;28;20440;-67
2021/06/13 14:47:42;;;;;;;4.67;4.17;;;;;;;;;;5116508;28;20867;-68
2021/06/13 14:50:10;;;;;;;5.00;4.33;;;;;;;;;;5115552;28;20519;-67
2021/06/13 14:52:39;;;;;;;5.07;3.90;;;;;;;;;;5116128;28;20522;-67